Time;durP1;ratioP1;P1;durP2;ratioP2;P2;SDS_P1;SDS_P2;PMS_P1;PMS_P2;Temp;Humidity;BMP_temperature;BMP_pressure;BME280_temperature;BME280_humidity;BME280_pressure;Samples;Min_cycle;Max_cycle;Signal;HPM_P1;HPM_P2
2022/01/08 00:00:58;;;;;;;7.65;5.80;;;;;;;1.66;84.45;98163.31;4953779;29;20034;-87
2022/01/08 00:03:25;;;;;;;7.22;5.55;;;;;;;1.49;84.59;98123.50;4953905;29;20106;-88
2022/01/08 00:05:51;;;;;;;7.38;5.35;;;;;;;1.53;84.63;98141.28;4954092;29;20094;-89
2022/01/08 00:08:16;;;;;;;8.13;6.85;;;;;;;1.41;84.93;98113.22;4937163;29;20031;-90
2022/01/08 00:10:45;;;;;;;8.32;6.30;;;;;;;1.74;84.70;98157.81;4953956;29;20459;-90
2022/01/08 00:13:10;;;;;;;6.63;5.45;;;;;;;1.86;84.57;98185.06;4937742;29;20117;-88
2022/01/08 00:15:37;;;;;;;7.40;5.90;;;;;;;1.87;84.53;98181.41;4937530;29;20059;-88
2022/01/08 00:18:02;;;;;;;7.43;5.80;;;;;;;1.87;84.61;98181.41;4953693;29;20062;-88
2022/01/08 00:20:29;;;;;;;10.73;6.07;;;;;;;1.85;84.73;98171.13;4953546;29;20085;-87
2022/01/08 00:22:56;;;;;;;9.73;5.50;;;;;;;1.81;84.77;98167.28;4953446;29;20030;-86
2022/01/08 00:25:21;;;;;;;8.88;7.03;;;;;;;1.86;84.99;98171.91;4937448;29;20499;-86
2022/01/08 00:27:47;;;;;;;9.60;6.80;;;;;;;1.86;84.57;98169.28;4953195;29;20028;-87
2022/01/08 00:30:13;;;;;;;8.55;6.32;;;;;;;1.86;84.46;98171.91;4921272;29;20082;-87
2022/01/08 00:32:40;;;;;;;7.63;6.60;;;;;;;1.86;84.59;98174.53;4937402;29;20086;-86
2022/01/08 00:35:07;;;;;;;7.90;6.85;;;;;;;1.82;85.22;98166.25;4953276;29;20020;-85
2022/01/08 00:37:34;;;;;;;7.25;6.55;;;;;;;1.83;84.73;98161.81;4937433;29;20496;-86
2022/01/08 00:40:00;;;;;;;9.93;7.35;;;;;;;1.84;85.08;98166.03;4921843;29;20097;-85
2022/01/08 00:42:26;;;;;;;7.28;6.07;;;;;;;1.78;84.67;98161.63;4953003;29;20023;-85
2022/01/08 00:44:54;;;;;;;8.95;7.40;;;;;;;1.86;85.06;98167.44;4936950;29;20514;-86
2022/01/08 00:47:20;;;;;;;7.20;6.15;;;;;;;1.86;84.62;98166.63;4937183;29;20066;-87
2022/01/08 00:49:45;;;;;;;7.97;7.18;;;;;;;1.87;84.67;98163.81;4937216;29;20240;-87
2022/01/08 00:52:11;;;;;;;7.63;6.53;;;;;;;1.87;84.52;98168.25;4937018;29;20404;-87
2022/01/08 00:54:37;;;;;;;12.05;6.38;;;;;;;1.87;84.86;98174.34;4921304;29;20059;-87
2022/01/08 00:57:03;;;;;;;9.20;6.97;;;;;;;1.88;84.70;98173.31;4937309;29;20031;-87
2022/01/08 00:59:29;;;;;;;11.32;6.40;;;;;;;1.83;84.81;98164.44;4952845;29;20552;-87
2022/01/08 01:02:01;;;;;;;8.48;6.75;;;;;;;1.87;84.46;98170.91;4952987;29;20039;-87
2022/01/08 01:04:27;;;;;;;7.85;6.53;;;;;;;1.74;84.99;98144.66;4953027;29;20425;-86
2022/01/08 01:06:53;;;;;;;9.02;6.88;;;;;;;1.45;84.72;98104.72;4952843;29;20066;-86
2022/01/08 01:09:18;;;;;;;9.68;6.80;;;;;;;1.69;84.79;98140.00;4936891;29;20060;-85
2022/01/08 01:11:44;;;;;;;9.73;7.45;;;;;;;1.74;84.76;98145.47;4952773;29;20114;-85
2022/01/08 01:14:09;;;;;;;8.10;6.70;;;;;;;1.86;84.70;98159.56;4936941;29;20028;-85
2022/01/08 01:16:35;;;;;;;7.68;6.85;;;;;;;1.87;84.69;98163.81;4936919;29;20031;-85
2022/01/08 01:19:02;;;;;;;10.90;7.70;;;;;;;1.87;84.39;98166.44;4954818;28;20533;-85
2022/01/08 01:21:28;;;;;;;11.57;8.00;;;;;;;1.86;84.40;98164.00;4924887;29;20178;-84
2022/01/08 01:23:55;;;;;;;9.93;7.93;;;;;;;1.85;84.34;98151.88;4956086;29;20027;-85
2022/01/08 01:26:25;;;;;;;9.02;7.03;;;;;;;1.85;84.91;98151.88;4940064;29;20031;-85
2022/01/08 01:29:22;;;;;;;10.07;7.70;;;;;;;1.83;84.48;98156.56;4940469;29;20035;-85
2022/01/08 01:47:48;;;;;;;8.32;7.30;;;;;;;1.81;84.48;98153.31;4943309;29;20086;-86
2022/01/08 01:50:13;;;;;;;10.65;7.55;;;;;;;1.80;84.67;98154.31;4924227;29;20023;-86
2022/01/08 01:52:39;;;;;;;8.57;7.07;;;;;;;1.81;84.90;98159.41;4940160;29;20035;-86
2022/01/08 01:55:06;;;;;;;10.98;7.05;;;;;;;1.80;84.84;98147.25;4940203;29;20027;-86
2022/01/08 01:57:31;;;;;;;10.07;7.53;;;;;;;1.82;84.75;98149.66;4956182;29;20031;-85
2022/01/08 01:59:58;;;;;;;11.10;7.38;;;;;;;1.74;84.81;98148.09;4956182;29;20027;-86
2022/01/08 02:02:23;;;;;;;11.52;7.60;;;;;;;1.82;84.76;98158.38;4940093;29;20051;-86
2022/01/08 02:04:49;;;;;;;10.23;7.70;;;;;;;1.81;84.35;98154.13;4924207;29;20090;-86
2022/01/08 02:07:14;;;;;;;9.35;7.78;;;;;;;1.76;84.98;98150.50;4923928;29;20560;-85
2022/01/08 02:09:40;;;;;;;7.45;6.68;;;;;;;1.81;84.68;98151.50;4924030;29;20039;-86
2022/01/08 02:12:10;;;;;;;10.70;7.03;;;;;;;1.81;84.96;98148.06;4923934;29;20027;-85
2022/01/08 02:14:37;;;;;;;12.32;7.38;;;;;;;1.76;84.57;98140.81;4955748;29;20113;-85
2022/01/08 02:17:04;;;;;;;8.00;6.88;;;;;;;1.82;85.15;98152.28;4939807;29;20038;-85
2022/01/08 02:19:29;;;;;;;9.52;7.38;;;;;;;1.82;84.75;98147.03;4940052;29;20035;-84
2022/01/08 02:21:57;;;;;;;10.73;7.75;;;;;;;1.81;84.86;98151.50;4939724;29;20039;-86
2022/01/08 02:24:24;;;;;;;9.55;7.43;;;;;;;1.83;84.45;98146.03;4924191;29;20035;-86
2022/01/08 02:26:50;;;;;;;7.82;7.10;;;;;;;1.53;84.61;98101.84;4939812;29;20067;-87
2022/01/08 02:29:22;;;;;;;9.90;7.45;;;;;;;1.41;84.79;98071.97;4939713;29;20063;-87
2022/01/08 02:31:59;;;;;;;10.55;7.85;;;;;;;1.40;84.74;98077.44;4954790;28;20050;-86
2022/01/08 02:34:27;;;;;;;13.43;7.00;;;;;;;1.65;84.54;98109.09;4955440;29;20023;-85
2022/01/08 02:36:53;;;;;;;10.25;7.60;;;;;;;1.47;84.72;98081.66;4939606;29;20042;-86
2022/01/08 02:39:19;;;;;;;9.07;7.28;;;;;;;1.58;84.57;98097.78;4955262;29;20023;-86
2022/01/08 02:41:44;;;;;;;9.23;7.55;;;;;;;1.66;84.77;98110.72;4939374;29;20126;-86
2022/01/08 02:44:10;;;;;;;10.85;7.57;;;;;;;1.46;85.06;98074.78;4955213;29;20034;-86
2022/01/08 02:46:41;;;;;;;8.88;7.95;;;;;;;1.40;84.94;98062.47;4955376;29;20023;-87
2022/01/08 02:49:08;;;;;;;8.45;6.65;;;;;;;1.45;84.51;98067.09;4939247;29;20558;-86
2022/01/08 02:51:35;;;;;;;11.75;7.88;;;;;;;1.65;84.92;98104.63;4954778;29;20027;-86
2022/01/08 02:54:03;;;;;;;9.13;6.95;;;;;;;1.45;84.49;98072.38;4954840;29;20055;-86
2022/01/08 02:56:28;;;;;;;8.93;6.72;;;;;;;1.50;84.70;98080.44;4938959;29;20492;-86
2022/01/08 03:01:21;;;;;;;9.68;7.75;;;;;;;1.82;84.68;98120.72;4960130;28;20067;-84
2022/01/08 03:03:46;;;;;;;9.38;7.57;;;;;;;1.80;84.66;98122.75;4928952;28;20035;-85
2022/01/08 03:06:12;;;;;;;9.30;7.20;;;;;;;1.80;84.55;98122.75;4944531;28;20035;-87
2022/01/08 03:08:37;;;;;;;10.68;7.50;;;;;;;1.80;84.69;98123.56;4949209;28;20400;-86
2022/01/08 03:11:02;;;;;;;10.50;7.40;;;;;;;1.80;84.47;98117.50;4938870;29;20046;-84
2022/01/08 03:13:28;;;;;;;8.43;7.15;;;;;;;1.74;84.52;98115.72;4963310;28;20127;-85
2022/01/08 03:15:53;;;;;;;10.00;7.97;;;;;;;1.71;85.07;98111.69;4922706;29;20038;-85
2022/01/08 03:18:19;;;;;;;12.30;7.70;;;;;;;1.82;84.88;98123.34;4930715;28;20026;-84
2022/01/08 03:20:59;;;;;;;10.52;7.32;;;;;;;1.82;84.80;98126.00;4952594;28;20502;-86
2022/01/08 03:23:33;;;;;;;9.18;7.15;;;;;;;1.81;84.82;98127.03;4951394;28;20031;-85
2022/01/08 03:25:59;;;;;;;10.10;7.80;;;;;;;1.81;85.01;98127.84;4946512;28;20035;-84
2022/01/08 03:28:24;;;;;;;10.15;7.30;;;;;;;1.81;84.75;98132.28;4943067;29;20599;-86
2022/01/08 03:30:50;;;;;;;9.45;7.22;;;;;;;1.80;84.54;98135.91;4966064;28;20035;-86
2022/01/08 03:33:15;;;;;;;10.75;7.85;;;;;;;1.81;84.75;98137.53;4928118;29;20130;-86
2022/01/08 03:35:40;;;;;;;11.63;8.20;;;;;;;1.80;84.96;98144.63;4919399;29;20119;-86
2022/01/08 03:38:06;;;;;;;11.98;8.27;;;;;;;1.73;84.78;98121.97;4934563;28;20548;-86
2022/01/08 03:40:31;;;;;;;10.48;7.72;;;;;;;1.80;84.87;98134.09;4933244;28;20046;-85
2022/01/08 03:42:57;;;;;;;11.90;9.90;;;;;;;1.81;84.62;98134.91;4943971;29;20035;-86
2022/01/08 03:45:22;;;;;;;10.20;7.97;;;;;;;1.81;84.67;98129.66;4945313;28;20031;-85
2022/01/08 03:50:13;;;;;;;13.32;8.02;;;;;;;1.80;84.81;98130.66;4956976;28;20119;-85
2022/01/08 03:52:38;;;;;;;10.70;8.93;;;;;;;1.71;85.13;98106.41;4930945;28;20118;-86
2022/01/08 03:55:04;;;;;;;9.88;8.15;;;;;;;1.82;84.84;98126.00;4946752;28;20023;-84
2022/01/08 03:57:29;;;;;;;10.73;8.48;;;;;;;1.82;84.71;98120.72;4966987;28;20071;-86
2022/01/08 03:59:55;;;;;;;12.55;8.63;;;;;;;1.83;84.83;98120.53;4963040;28;20031;-85
2022/01/08 04:02:20;;;;;;;10.65;8.80;;;;;;;1.83;85.10;98125.78;4941662;28;20133;-86
2022/01/08 04:04:48;;;;;;;12.23;8.48;;;;;;;1.82;84.73;98126.81;4942563;28;20067;-86
2022/01/08 04:07:13;;;;;;;10.93;9.25;;;;;;;1.82;84.94;98126.81;4923021;28;20419;-86
2022/01/08 04:09:39;;;;;;;13.40;9.48;;;;;;;1.82;84.97;98129.44;4952560;28;20035;-87
2022/01/08 04:12:06;;;;;;;10.55;9.43;;;;;;;1.82;85.06;98116.28;4937735;28;20373;-86
2022/01/08 04:14:42;;;;;;;12.23;10.07;;;;;;;1.79;85.05;98123.78;4926525;28;20480;-86
2022/01/08 04:17:08;;;;;;;11.93;9.52;;;;;;;1.81;84.93;98117.31;4941411;28;20125;-85
2022/01/08 04:19:33;;;;;;;14.35;9.13;;;;;;;1.81;84.87;98116.50;4950572;28;20126;-85
2022/01/08 04:21:59;;;;;;;11.18;9.93;;;;;;;1.71;85.12;98102.97;4943292;28;20035;-85
2022/01/08 04:24:26;;;;;;;12.55;9.43;;;;;;;1.83;84.76;98127.63;4945259;28;20399;-85
2022/01/08 04:26:52;;;;;;;11.23;8.95;;;;;;;1.81;84.83;98129.66;4944249;28;20097;-85
2022/01/08 04:29:17;;;;;;;16.40;10.68;;;;;;;1.81;84.92;98135.72;4951315;28;20121;-84
2022/01/08 04:31:42;;;;;;;13.55;9.98;;;;;;;1.82;84.69;98129.44;4935122;28;20043;-85
2022/01/08 04:34:08;;;;;;;12.23;9.20;;;;;;;1.82;85.06;98132.06;4940880;28;20030;-86
2022/01/08 04:36:33;;;;;;;12.10;9.57;;;;;;;1.80;85.19;98133.28;4942943;28;20050;-85
2022/01/08 04:38:59;;;;;;;11.60;9.05;;;;;;;1.84;85.07;98137.09;4924229;29;20023;-86
2022/01/08 04:41:24;;;;;;;12.63;9.45;;;;;;;1.84;84.88;98134.47;4943349;28;20033;-86
2022/01/08 04:43:50;;;;;;;15.45;9.85;;;;;;;1.83;84.98;98132.88;4959111;28;20100;-86
2022/01/08 04:46:15;;;;;;;12.02;8.88;;;;;;;1.82;84.90;98141.78;4923773;28;20043;-85
2022/01/08 04:48:41;;;;;;;11.88;9.95;;;;;;;1.75;85.05;98127.88;4955799;28;20031;-85
2022/01/08 04:51:06;;;;;;;13.13;10.07;;;;;;;1.73;84.91;98125.44;4943092;28;20058;-85
2022/01/08 04:53:32;;;;;;;15.15;9.18;;;;;;;1.82;85.19;98137.31;4941129;28;20035;-85
2022/01/08 04:55:57;;;;;;;10.82;9.00;;;;;;;1.82;84.91;98132.06;4963665;28;20019;-85
2022/01/08 04:58:23;;;;;;;12.38;9.90;;;;;;;1.74;84.99;98134.13;4964906;28;20083;-84
2022/01/08 05:00:48;;;;;;;12.20;9.88;;;;;;;1.83;85.12;98138.94;4961449;28;20059;-85
2022/01/08 05:03:13;;;;;;;13.48;9.95;;;;;;;1.84;84.91;98150.25;4946128;28;20098;-86
2022/01/08 05:05:39;;;;;;;12.75;9.18;;;;;;;1.84;85.06;98152.88;4960487;28;20043;-86
2022/01/08 05:08:04;;;;;;;14.05;8.82;;;;;;;1.84;84.85;98145.81;4927851;28;20120;-85
2022/01/08 05:10:33;;;;;;;11.63;9.70;;;;;;;1.69;85.12;98129.50;4943707;28;20031;-86
2022/01/08 05:13:03;;;;;;;12.68;10.32;;;;;;;1.80;85.19;98144.63;4943008;28;20035;-85
2022/01/08 05:15:30;;;;;;;16.13;10.23;;;;;;;1.80;84.78;98149.06;4959161;28;20619;-86
2022/01/08 05:17:55;;;;;;;15.13;9.43;;;;;;;1.83;84.80;98157.38;4962065;28;20023;-86
2022/01/08 05:20:21;;;;;;;14.25;10.93;;;;;;;1.67;84.66;98134.16;4933196;29;20118;-85
2022/01/08 05:25:12;;;;;;;17.48;9.82;;;;;;;1.83;84.83;98154.72;4967441;28;20035;-86
2022/01/08 05:27:38;;;;;;;13.10;9.82;;;;;;;1.83;85.01;98160.00;4967745;28;20027;-86
2022/01/08 05:30:04;;;;;;;12.73;10.45;;;;;;;1.82;84.78;98165.44;4953473;28;20220;-87
2022/01/08 05:32:30;;;;;;;13.70;10.05;;;;;;;1.78;84.67;98153.72;4959226;28;20023;-87
2022/01/08 05:34:56;;;;;;;13.80;10.13;;;;;;;1.80;85.00;98175.38;4943366;28;20034;-87
2022/01/08 05:37:21;;;;;;;15.23;9.95;;;;;;;1.72;84.52;98171.16;4974698;28;20050;-87
2022/01/08 05:39:47;;;;;;;13.15;10.13;;;;;;;1.79;85.01;98173.78;4942455;29;20065;-87
2022/01/08 05:42:13;;;;;;;17.25;10.45;;;;;;;1.79;84.56;98189.56;4936907;29;20480;-85
2022/01/08 05:44:38;;;;;;;16.40;11.05;;;;;;;1.72;84.46;98181.69;4936558;29;20040;-88
2022/01/08 05:47:04;;;;;;;14.00;11.15;;;;;;;1.67;84.63;98160.47;4920583;29;20032;-87
2022/01/08 05:49:30;;;;;;;14.73;11.50;;;;;;;1.79;85.04;98189.56;4924264;28;20030;-86
2022/01/08 05:51:55;;;;;;;14.82;10.20;;;;;;;1.79;85.01;98192.97;4925598;29;20627;-85
2022/01/08 05:54:21;;;;;;;18.13;11.23;;;;;;;1.46;84.92;98140.50;4944747;28;20034;-84
2022/01/08 05:56:46;;;;;;;12.75;10.27;;;;;;;1.73;84.79;98191.19;4964760;28;20027;-86
2022/01/08 05:59:12;;;;;;;18.48;11.13;;;;;;;1.80;84.72;98202.50;4930065;29;20043;-85
2022/01/08 06:01:37;;;;;;;19.58;11.18;;;;;;;1.80;84.65;98206.94;4926000;29;20027;-87
2022/01/08 06:04:04;;;;;;;15.82;11.57;;;;;;;1.80;84.88;98213.00;4959322;28;20110;-86
2022/01/08 06:06:29;;;;;;;17.83;10.85;;;;;;;1.67;84.62;98189.38;4961522;28;20027;-85
2022/01/08 06:08:55;;;;;;;14.35;10.80;;;;;;;1.81;85.00;98211.19;4928270;28;20281;-84
2022/01/08 06:11:21;;;;;;;16.08;11.32;;;;;;;1.81;84.85;98216.47;4957866;28;20023;-85
2022/01/08 06:13:46;;;;;;;19.05;11.25;;;;;;;1.80;85.05;98213.00;4955399;28;20041;-84
2022/01/08 06:16:12;;;;;;;15.32;11.00;;;;;;;1.82;85.06;98210.16;4957280;28;20038;-85
2022/01/08 06:18:38;;;;;;;15.07;10.43;;;;;;;1.81;85.15;98219.91;4936692;29;20558;-87
2022/01/08 06:21:04;;;;;;;15.50;10.88;;;;;;;1.82;84.79;98218.06;4971459;28;20407;-86
2022/01/08 06:23:30;;;;;;;14.85;10.68;;;;;;;1.77;85.40;98210.00;4943171;28;20023;-86
2022/01/08 06:25:56;;;;;;;17.10;11.10;;;;;;;1.63;85.02;98184.75;4958078;28;20519;-87
2022/01/08 06:28:21;;;;;;;14.45;10.45;;;;;;;1.76;85.19;98206.56;4943879;28;20031;-86
2022/01/08 06:30:47;;;;;;;20.73;11.13;;;;;;;1.83;85.48;98220.50;4942119;28;20039;-85
2022/01/08 06:33:14;;;;;;;16.17;10.20;;;;;;;1.74;85.59;98210.41;4958520;28;20455;-84
2022/01/08 06:35:39;;;;;;;17.90;11.45;;;;;;;1.84;84.98;98223.91;4926602;28;20123;-83
2022/01/08 06:38:05;;;;;;;17.25;10.75;;;;;;;1.84;85.28;98226.56;4939765;29;20063;-86
2022/01/08 06:40:31;;;;;;;15.73;11.75;;;;;;;1.84;85.36;98231.81;4930438;28;20043;-85
2022/01/08 06:42:56;;;;;;;17.80;11.02;;;;;;;1.83;85.24;98228.41;4959079;28;20034;-87
2022/01/08 06:45:22;;;;;;;16.98;11.68;;;;;;;1.78;84.99;98228.19;4957192;28;20613;-86
2022/01/08 06:47:47;;;;;;;20.42;11.77;;;;;;;1.85;85.43;98230.81;4914920;28;21207;-85
2022/01/08 06:50:13;;;;;;;16.13;10.68;;;;;;;1.85;85.32;98241.34;4959635;28;20061;-85
2022/01/08 06:52:39;;;;;;;15.48;11.20;;;;;;;1.85;85.21;98241.34;4961558;28;20029;-88
2022/01/08 06:55:05;;;;;;;17.20;12.45;;;;;;;1.84;85.31;98244.97;4932990;28;20024;-87
2022/01/08 06:57:30;;;;;;;16.88;11.20;;;;;;;1.83;85.16;98251.25;4965011;28;20034;-84
2022/01/08 06:59:55;;;;;;;19.10;12.38;;;;;;;1.79;85.67;98231.66;4940017;28;20034;-85
2022/01/08 07:02:21;;;;;;;17.95;11.32;;;;;;;1.85;85.07;98249.22;4927097;28;20034;-85
2022/01/08 07:04:46;;;;;;;18.75;12.32;;;;;;;1.85;85.49;98246.59;4942376;28;20396;-85
2022/01/08 07:07:12;;;;;;;18.52;13.23;;;;;;;1.85;85.30;98257.94;4921616;28;20404;-85
2022/01/08 07:09:37;;;;;;;21.85;12.35;;;;;;;1.85;85.08;98246.59;4948454;28;20035;-86
2022/01/08 07:12:03;;;;;;;17.92;12.38;;;;;;;1.84;85.37;98256.31;4932074;28;20113;-86
2022/01/08 07:14:28;;;;;;;17.88;12.70;;;;;;;1.75;85.35;98246.25;4939150;28;20126;-85
2022/01/08 07:16:54;;;;;;;14.73;11.65;;;;;;;1.61;85.39;98234.94;4938507;28;20062;-83
2022/01/08 07:19:20;;;;;;;19.50;13.18;;;;;;;1.85;85.00;98272.91;4939989;28;20030;-87
2022/01/08 07:21:46;;;;;;;18.90;11.82;;;;;;;1.86;85.08;98271.88;4937927;28;20034;-84
2022/01/08 07:24:11;;;;;;;17.30;11.75;;;;;;;1.85;85.59;98272.91;4954552;28;20035;-86
2022/01/08 07:26:36;;;;;;;15.70;11.55;;;;;;;1.85;85.09;98270.28;4937643;29;20483;-84
2022/01/08 07:29:03;;;;;;;19.90;13.07;;;;;;;1.85;85.63;98272.91;4928306;29;20404;-84
2022/01/08 07:31:29;;;;;;;21.00;12.43;;;;;;;1.77;85.35;98249.47;4944556;28;20542;-85
2022/01/08 07:33:54;;;;;;;17.88;11.35;;;;;;;1.80;85.18;98265.63;4936914;29;20040;-84
2022/01/08 07:36:20;;;;;;;15.23;12.40;;;;;;;1.80;85.56;98262.19;4942976;28;20131;-84
2022/01/08 07:38:47;;;;;;;18.50;13.30;;;;;;;1.85;85.12;98263.19;4944166;29;20031;-84
2022/01/08 07:41:13;;;;;;;19.02;12.63;;;;;;;1.87;84.94;98265.63;4956213;28;20485;-84
2022/01/08 07:43:39;;;;;;;18.30;12.07;;;;;;;1.85;85.33;98272.91;4941972;28;20043;-84
2022/01/08 07:46:04;;;;;;;17.58;11.98;;;;;;;1.70;85.49;98253.94;4941725;28;20023;-84
2022/01/08 07:48:29;;;;;;;16.25;12.48;;;;;;;1.86;85.34;98262.16;4940907;28;20035;-85
2022/01/08 07:50:56;;;;;;;16.92;11.82;;;;;;;1.52;84.88;98210.69;4956384;29;20106;-84
2022/01/08 07:53:22;;;;;;;15.85;11.93;;;;;;;1.64;84.94;98245.03;4958018;29;20101;-85
2022/01/08 07:55:48;;;;;;;20.92;12.43;;;;;;;1.70;84.77;98259.19;4957475;29;20058;-85
2022/01/08 07:58:13;;;;;;;18.02;12.13;;;;;;;1.85;84.91;98278.16;4939250;29;20091;-85
2022/01/08 08:00:39;;;;;;;17.02;12.77;;;;;;;1.53;85.29;98229.88;4957699;28;20031;-85
2022/01/08 08:03:04;;;;;;;19.40;12.32;;;;;;;1.83;85.18;98269.69;4934336;29;20114;-85
2022/01/08 08:05:31;;;;;;;19.27;11.77;;;;;;;1.85;85.19;98278.97;4936183;28;20396;-84
2022/01/08 08:07:57;;;;;;;17.25;12.25;;;;;;;1.86;85.48;98282.41;4942339;29;20035;-83
2022/01/08 08:10:25;;;;;;;15.23;11.45;;;;;;;1.86;85.30;98285.03;4958819;28;20043;-83
2022/01/08 08:12:53;;;;;;;16.88;11.40;;;;;;;1.86;84.87;98283.22;4942675;29;20036;-84
2022/01/08 08:15:20;;;;;;;18.95;12.93;;;;;;;1.86;85.58;98288.47;4953778;28;20019;-83
2022/01/08 08:17:47;;;;;;;19.92;11.98;;;;;;;1.74;85.09;98273.53;4950949;28;20069;-84
2022/01/08 08:20:15;;;;;;;19.20;11.95;;;;;;;1.89;85.11;98289.88;4951925;28;20031;-83
2022/01/08 08:22:41;;;;;;;18.80;12.30;;;;;;;1.89;85.08;98280.19;4928825;29;20404;-84
2022/01/08 08:25:10;;;;;;;16.23;11.90;;;;;;;1.82;85.53;98276.75;4921533;29;20043;-84
2022/01/08 08:27:35;;;;;;;18.30;12.38;;;;;;;1.93;85.59;98296.34;4933399;29;20039;-83
2022/01/08 08:30:01;;;;;;;21.25;13.05;;;;;;;1.93;85.53;98291.09;4935417;28;20038;-84
2022/01/08 08:32:26;;;;;;;19.67;12.02;;;;;;;1.79;85.19;98261.38;4922453;29;20024;-86
2022/01/08 08:34:55;;;;;;;16.63;12.32;;;;;;;1.95;85.17;98284.59;4939676;29;20027;-85
2022/01/08 08:37:20;;;;;;;20.33;13.32;;;;;;;1.97;85.59;98277.31;4936593;29;20035;-85
2022/01/08 08:39:46;;;;;;;25.90;14.13;;;;;;;1.98;85.32;98281.56;4943876;29;20142;-84
2022/01/08 08:42:12;;;;;;;22.95;13.00;;;;;;;2.01;85.51;98280.34;4938026;29;20090;-85
2022/01/08 08:44:48;;;;;;;22.02;13.57;;;;;;;2.01;85.18;98285.63;4940242;28;20062;-84
2022/01/08 08:47:15;;;;;;;22.20;13.32;;;;;;;1.89;85.53;98258.31;4935607;29;20124;-82
2022/01/08 08:49:40;;;;;;;24.20;13.90;;;;;;;2.02;85.56;98289.84;4957335;28;20027;-83
2022/01/08 08:52:06;;;;;;;22.35;13.30;;;;;;;2.01;85.21;98283.78;4940027;29;20047;-84
2022/01/08 08:54:31;;;;;;;25.63;13.65;;;;;;;2.01;85.58;98283.78;4924582;29;20387;-87
2022/01/08 08:56:56;;;;;;;20.90;13.52;;;;;;;2.00;85.41;98297.16;4934017;28;20039;-83
2022/01/08 08:59:23;;;;;;;16.70;11.48;;;;;;;2.01;85.32;98285.63;4950275;29;20024;-83
2022/01/08 09:01:49;;;;;;;22.38;13.98;;;;;;;1.81;85.59;98261.19;4950696;28;20130;-83
2022/01/08 09:04:15;;;;;;;18.52;13.88;;;;;;;2.01;85.04;98299.56;4934521;28;20108;-83
2022/01/08 09:06:40;;;;;;;21.95;12.38;;;;;;;1.71;85.26;98247.63;4936006;29;20027;-83
2022/01/08 09:09:06;;;;;;;19.38;12.20;;;;;;;2.01;85.40;98293.50;4935216;28;20031;-82
2022/01/08 09:11:31;;;;;;;19.75;13.07;;;;;;;2.02;85.26;98301.19;4921746;28;20041;-83
2022/01/08 09:13:57;;;;;;;21.40;13.77;;;;;;;2.00;85.49;98297.16;4930001;28;20045;-83
2022/01/08 09:16:22;;;;;;;18.92;13.23;;;;;;;2.02;84.93;98290.66;4943273;28;20027;-83
2022/01/08 09:18:48;;;;;;;18.52;12.45;;;;;;;2.03;85.43;98297.53;4933809;29;20035;-83
2022/01/08 09:21:14;;;;;;;19.50;13.10;;;;;;;2.04;85.64;98304.41;4934762;29;20031;-82
2022/01/08 09:23:40;;;;;;;24.23;13.65;;;;;;;2.04;85.63;98298.34;4953503;28;20051;-83
2022/01/08 09:26:06;;;;;;;17.98;11.48;;;;;;;2.07;85.34;98304.03;4932492;29;20114;-82
2022/01/08 09:28:32;;;;;;;22.25;13.38;;;;;;;2.08;85.88;98310.88;4962436;28;20050;-83
2022/01/08 09:31:03;;;;;;;18.92;12.50;;;;;;;2.07;85.50;98311.91;4940577;28;20038;-82
2022/01/08 09:33:29;;;;;;;19.10;12.73;;;;;;;2.10;85.33;98313.31;4955797;28;20019;-87
2022/01/08 09:35:55;;;;;;;21.35;12.43;;;;;;;2.09;85.63;98301.16;4954745;29;20031;-84
2022/01/08 09:38:20;;;;;;;18.60;12.23;;;;;;;2.12;86.02;98312.06;4954879;29;20365;-89
2022/01/08 09:40:46;;;;;;;21.98;12.65;;;;;;;2.13;85.49;98300.56;4956095;28;20031;-85
2022/01/08 10:01:28;;;;;;;17.85;10.73;;;;;;;2.12;86.24;98291.03;4986103;28;20524;-86
2022/01/08 10:03:55;;;;;;;25.00;12.55;;;;;;;2.12;86.08;98293.66;4982262;28;20037;-87
2022/01/08 10:06:26;;;;;;;23.05;11.27;;;;;;;2.19;86.15;98301.53;4955679;28;20031;-86
2022/01/08 10:08:51;;;;;;;26.17;11.50;;;;;;;2.18;85.79;98303.34;4971638;28;20030;-88
2022/01/08 10:11:19;;;;;;;17.08;10.68;;;;;;;2.19;86.01;98294.44;4976076;28;20501;-87
2022/01/08 10:13:47;;;;;;;23.55;11.82;;;;;;;1.99;85.92;98272.66;4960620;28;20034;-88
2022/01/08 10:19:00;;;;;;;21.63;11.68;;;;;;;2.21;85.99;98296.84;4980595;28;20395;-90
2022/01/08 10:21:34;;;;;;;44.25;11.50;;;;;;;2.20;84.74;98298.72;4979023;28;20025;-88
2022/01/08 10:24:08;;;;;;;19.27;9.45;;;;;;;2.15;84.18;98298.50;4977981;28;20114;-87
2022/01/08 10:26:39;;;;;;;18.55;9.52;;;;;;;2.12;84.44;98296.28;5009623;28;20034;-86
2022/01/08 10:29:11;;;;;;;22.05;10.13;;;;;;;2.11;83.80;98289.44;4959419;28;20122;-89
2022/01/08 10:31:54;;;;;;;24.50;11.05;;;;;;;2.08;84.09;98286.38;4976399;28;20680;-86
2022/01/08 10:34:30;;;;;;;24.20;10.65;;;;;;;2.11;84.32;98284.16;4981208;28;20030;-89
2022/01/08 10:41:16;;;;;;;;;;;;;;;;;;;;;
2022/01/08 10:47:43;;;;;;;15.68;10.70;;;;;;;2.01;84.30;98275.88;4965893;28;20078;-88
2022/01/08 10:50:39;;;;;;;16.63;10.48;;;;;;;1.96;84.15;98259.09;4976549;28;20039;-88
2022/01/08 10:53:09;;;;;;;19.92;9.60;;;;;;;1.97;83.83;98253.63;4951307;28;20050;-87
2022/01/08 10:55:54;;;;;;;19.63;10.32;;;;;;;1.95;83.69;98253.03;4969177;28;20050;-87
2022/01/08 11:02:28;;;;;;;16.30;10.02;;;;;;;1.89;84.36;98264.41;4981537;28;20125;-87
2022/01/08 11:08:21;;;;;;;27.45;10.23;;;;;;;2.09;84.35;98261.69;4974679;28;20135;-87
2022/01/08 11:11:41;;;;;;;14.77;9.77;;;;;;;2.10;84.70;98258.84;4967052;28;20125;-90
2022/01/08 11:14:46;;;;;;;24.67;10.07;;;;;;;2.14;84.91;98261.88;4975108;28;20583;-89
2022/01/08 11:17:22;;;;;;;33.10;11.07;;;;;;;2.16;85.00;98260.63;4977357;28;20026;-89
2022/01/08 11:20:33;;;;;;;22.98;9.43;;;;;;;2.17;84.66;98267.53;4972569;28;20021;-89
2022/01/08 11:23:02;;;;;;;29.88;10.65;;;;;;;2.13;84.56;98249.72;4968034;28;20027;-90
2022/01/08 11:25:38;;;;;;;25.60;10.00;;;;;;;2.21;84.46;98260.81;4975569;28;20053;-89
2022/01/08 11:28:09;;;;;;;16.38;9.10;;;;;;;2.18;85.01;98247.28;4977401;28;20037;-89
2022/01/08 11:30:40;;;;;;;22.13;10.50;;;;;;;2.15;84.55;98237.97;4988018;28;20035;-88
2022/01/08 11:33:13;;;;;;;18.52;9.50;;;;;;;2.31;85.11;98252.47;4975094;28;20069;-88
2022/01/08 11:35:39;;;;;;;19.27;9.30;;;;;;;2.36;85.39;98255.28;4983982;28;20072;-89
2022/01/08 11:38:07;;;;;;;18.75;8.75;;;;;;;2.41;85.37;98246.75;4975605;28;20030;-89
2022/01/08 11:40:36;;;;;;;16.58;8.70;;;;;;;2.45;85.23;98246.09;4953200;28;20031;-88
2022/01/08 11:43:06;;;;;;;16.48;8.70;;;;;;;2.36;85.39;98223.66;4976517;28;20065;-89
2022/01/08 11:45:37;;;;;;;13.00;7.65;;;;;;;2.35;85.09;98208.91;4983897;28;20022;-89
2022/01/08 11:48:06;;;;;;;14.15;9.18;;;;;;;2.58;85.51;98234.72;4982375;28;20117;-89
2022/01/08 11:50:34;;;;;;;13.95;8.48;;;;;;;2.61;84.58;98242.97;4974114;28;20113;-89
2022/01/08 11:53:25;;;;;;;20.70;10.00;;;;;;;2.62;84.50;98233.25;4975397;28;20035;-89
2022/01/08 11:56:14;;;;;;;15.18;9.68;;;;;;;2.68;84.24;98237.69;4978101;28;20022;-89
2022/01/08 11:58:39;;;;;;;16.88;10.45;;;;;;;2.66;83.45;98227.34;4982408;28;20035;-88
2022/01/08 12:01:13;;;;;;;14.07;9.07;;;;;;;2.63;83.46;98222.50;4958018;28;20406;-89
2022/01/08 12:03:50;;;;;;;14.68;8.55;;;;;;;2.63;82.92;98224.31;4972584;28;20165;-89
2022/01/08 12:06:18;;;;;;;16.30;9.15;;;;;;;2.64;82.99;98221.50;4948595;29;20039;-90
2022/01/08 12:11:47;;;;;;;15.27;7.85;;;;;;;2.61;82.57;98205.28;4973891;28;20123;-89
2022/01/08 12:14:43;;;;;;;11.45;7.40;;;;;;;2.60;82.20;98195.78;4978738;28;20037;-89
2022/01/08 12:17:18;;;;;;;18.15;7.70;;;;;;;2.54;82.48;98194.81;4974225;28;20019;-89
2022/01/08 12:20:06;;;;;;;14.20;10.18;;;;;;;2.56;82.31;98190.13;4958808;28;20495;-89
2022/01/08 12:22:32;;;;;;;12.63;9.43;;;;;;;2.58;82.31;98184.66;4968606;28;20034;-89
2022/01/08 12:25:00;;;;;;;12.75;9.00;;;;;;;2.59;82.71;98186.25;4975501;28;20034;-88
2022/01/08 12:27:25;;;;;;;11.63;8.20;;;;;;;2.60;82.06;98175.50;4955229;28;20035;-89
2022/01/08 12:29:51;;;;;;;19.92;8.63;;;;;;;2.62;82.48;98167.41;4963444;28;20050;-90
2022/01/08 12:32:35;;;;;;;38.55;8.95;;;;;;;2.67;82.54;98151.75;4976843;28;20058;-89
2022/01/08 12:35:36;;;;;;;25.05;8.82;;;;;;;2.75;82.15;98159.41;4949996;28;20039;-90
2022/01/08 12:38:05;;;;;;;22.45;8.15;;;;;;;2.76;81.32;98143.38;4991981;28;20034;-90